Dubai, United Arab Emirates
Current Conditions -  °F | °C
As of 9:00 PM on Thursday 23 Oct 2014 (Local Time) from OMDB Reporting Station
Clear Clear  
Wind Chill: 84°   Ceiling: Unl
Heat Index: 86°   Visibility: 6mi
Dew Point: 64°   Wind: 6mph
Humidity: 51%   Direction: 240°WSW
Pressure: 29.91"   Gusts: NA
Location:  25.27°N, 55.33°E
Report Text: OMDB 231700Z 24005KT 190V270 CAVOK 29/18 Q1013 NOSIG
Loading
Personal Weather Stations






























Interactive Weather Map
Tropical Storm Tracking
New forecast layout! Learn more

10-Day Weather Forecast

Advertisements
Track Severe Weather on mobile